CDT,Max TemperatureF,Mean TemperatureF,Min TemperatureF,Max Dew PointF,MeanDew PointF,Min DewpointF,Max Humidity, Mean Humidity, Min Humidity, Max Sea Level PressureIn, Mean Sea Level PressureIn, Min Sea Level PressureIn, Max VisibilityMiles, Mean VisibilityMiles, Min VisibilityMiles, Max Wind SpeedMPH, Mean Wind SpeedMPH, Max Gust SpeedMPH,PrecipitationIn, CloudCover, Events, WindDirDegrees
2012-10-1,82,70,59,63,57,52,93,72,30,29.98,29.86,29.81,10,8,1,16,3,28,0.20,3,,321
2012-10-2,80,68,57,56,49,41,87,56,19,30.00,29.93,29.88,10,10,6,16,5,26,0.00,0,,328
2012-10-3,86,68,51,57,52,48,92,59,27,29.93,29.90,29.84,10,10,6,13,4,20,0.00,0,Rain,181
2012-10-4,95,80,64,66,63,58,93,63,26,30.05,29.96,29.91,10,8,2,12,5,16,0.00,1,,183
2012-10-5,91,76,62,64,58,55,81,57,27,30.10,29.96,29.87,10,10,6,12,4,20,0.00,3,Rain,187
2012-10-6,68,60,51,59,53,45,93,80,62,30.18,30.04,29.91,10,8,2,17,8,20,0.00,7,,44
2012-10-7,50,47,44,45,42,39,93,81,66,30.26,30.19,30.13,10,8,5,16,11,21,0.01,8,Rain,40
2012-10-8,73,60,46,54,45,39,74,64,46,30.22,30.11,29.98,10,10,9,10,3,,0.00,6,,66
2012-10-9,84,72,60,61,58,52,79,64,37,30.05,29.93,29.83,10,10,8,20,7,25,0.00,4,,212
2012-10-10,84,72,60,67,63,56,88,72,44,30.14,30.01,29.91,10,8,6,10,3,,0.00,5,Rain,86
2012-10-11,88,79,70,70,67,64,84,69,46,30.12,30.02,29.93,10,10,10,15,7,25,0.00,4,,153
2012-10-12,87,80,73,68,65,62,76,62,39,30.13,30.02,29.94,10,10,10,18,11,25,0.00,6,,154
2012-10-13,87,80,73,70,68,66,83,71,55,30.09,29.93,29.78,10,10,9,17,11,25,0.00,6,,177
2012-10-14,84,72,61,70,60,47,100,71,27,30.07,29.99,29.86,10,9,1,14,4,18,0.91,3,Rain,10
2012-10-15,79,66,53,55,51,45,89,62,30,30.11,30.03,29.94,10,10,8,10,1,,0.00,0,,102
2012-10-16,79,72,66,65,58,50,87,62,42,29.91,29.80,29.69,10,10,8,14,3,22,0.00,4,Rain,194
2012-10-17,95,80,64,66,59,48,90,63,19,29.78,29.67,29.56,10,9,5,14,5,24,0.00,2,,213
2012-10-18,77,65,50,51,41,33,80,47,16,29.97,29.87,29.72,10,10,8,14,5,22,0.00,0,,78
2012-10-19,84,62,39,43,35,26,86,46,7,30.03,29.94,29.85,10,10,9,12,3,20,0.00,0,,189
2012-10-20,88,69,51,65,57,44,82,63,44,29.92,29.80,29.71,10,9,7,14,4,20,0.00,2,,200
2012-10-21,91,82,72,67,65,60,79,62,35,29.94,29.79,29.73,10,8,6,18,8,25,0.00,2,,175
2012-10-22,88,79,70,67,63,59,79,62,36,29.99,29.83,29.79,10,10,7,14,7,21,0.00,3,,159
2012-10-23,84,78,71,67,65,64,81,69,51,29.99,29.86,29.81,10,10,8,15,8,16,0.00,6,,168
2012-10-24,84,76,70,66,64,57,83,68,53,30.00,29.85,29.75,10,10,10,15,7,21,0.00,5,,171
2012-10-25,88,76,62,66,59,42,78,61,44,30.06,29.83,29.73,10,10,9,20,9,26,0.00,4,,181
2012-10-26,60,54,48,42,36,27,77,52,40,30.27,30.14,29.99,10,10,7,20,13,28,0.08,8,Rain,21
2012-10-27,57,51,45,32,26,23,56,40,30,30.28,30.21,30.12,10,10,10,17,9,23,0.00,8,,35
2012-10-28,66,54,42,35,31,25,68,46,21,30.25,30.17,30.10,10,10,9,9,3,,0.00,3,,86
2012-10-29,73,54,34,38,33,28,79,48,19,30.25,30.14,30.04,10,10,9,8,2,,0.00,0,,180
2012-10-30,81,59,37,50,42,32,79,54,25,30.10,29.98,29.89,10,10,9,10,2,,0.00,0,,224
2012-10-31,86,65,44,56,45,40,86,56,20,30.03,29.97,29.92,10,10,7,8,2,,0.00,0,,329